createdAt,value
2024-01-11T00:02:03.863Z,28.00
2024-01-11T00:04:30.966Z,26.33
2024-01-11T00:06:58.058Z,28.93
2024-01-11T00:09:25.161Z,24.30
2024-01-11T00:11:52.210Z,29.80
2024-01-11T00:14:19.263Z,31.63
2024-01-11T00:16:46.359Z,26.43
2024-01-11T00:19:13.420Z,26.33
2024-01-11T00:21:42.073Z,29.30
2024-01-11T00:24:09.431Z,29.17
2024-01-11T00:26:37.415Z,26.13
2024-01-11T00:29:05.572Z,27.73
2024-01-11T00:31:32.725Z,25.33
2024-01-11T00:34:00.178Z,25.03
2024-01-11T00:36:27.654Z,26.33
2024-01-11T00:38:54.993Z,22.70
2024-01-11T00:41:22.045Z,24.40
2024-01-11T00:43:48.991Z,23.70
2024-01-11T00:46:15.977Z,24.37
2024-01-11T00:48:43.174Z,24.73
2024-01-11T00:51:10.413Z,19.33
2024-01-11T00:53:37.658Z,23.40
2024-01-11T00:56:05.049Z,20.53
2024-01-11T00:58:32.066Z,23.03
2024-01-11T01:00:59.092Z,23.57
2024-01-11T01:03:26.204Z,26.90
2024-01-11T01:05:53.472Z,27.07
2024-01-11T01:08:20.617Z,23.17
2024-01-11T01:10:47.587Z,27.03
2024-01-11T01:13:14.632Z,27.83
2024-01-11T01:15:41.744Z,26.50
2024-01-11T01:18:09.226Z,25.73
2024-01-11T01:20:36.454Z,24.77
2024-01-11T01:23:04.237Z,24.10
2024-01-11T01:25:31.575Z,22.80
2024-01-11T01:28:00.353Z,23.97
2024-01-11T01:30:28.076Z,23.53
2024-01-11T01:32:55.744Z,23.17
2024-01-11T01:35:23.447Z,26.20
2024-01-11T01:37:50.522Z,27.97
2024-01-11T01:40:18.004Z,23.13
2024-01-11T01:42:46.175Z,25.40
2024-01-11T01:45:13.501Z,25.13
2024-01-11T01:47:44.922Z,24.00
2024-01-11T01:50:13.311Z,24.47
2024-01-11T01:52:42.808Z,24.07
2024-01-11T01:55:11.776Z,25.53
2024-01-11T01:57:41.221Z,26.30
2024-01-11T02:00:12.646Z,26.90
2024-01-11T02:02:43.142Z,21.90
2024-01-11T02:05:12.398Z,21.60
2024-01-11T02:07:41.005Z,21.63
2024-01-11T02:10:08.997Z,22.53
2024-01-11T02:12:38.765Z,21.37
2024-01-11T02:15:06.735Z,24.30
2024-01-11T02:17:34.170Z,26.77
2024-01-11T02:20:02.563Z,23.40
2024-01-11T02:22:41.813Z,21.60
2024-01-11T02:25:09.009Z,23.73
2024-01-11T02:27:49.853Z,23.53
2024-01-11T02:30:17.942Z,21.23
2024-01-11T02:32:50.063Z,22.53
2024-01-11T02:35:17.965Z,22.40
2024-01-11T02:37:46.822Z,21.73
2024-01-11T02:40:16.245Z,24.97
2024-01-11T02:42:43.683Z,23.37
2024-01-11T02:45:13.802Z,24.60
2024-01-11T02:47:41.270Z,27.13
2024-01-11T02:50:09.283Z,24.97
2024-01-11T02:52:36.626Z,25.93
2024-01-11T02:55:03.751Z,22.17
2024-01-11T02:57:30.756Z,20.73
2024-01-11T02:59:57.731Z,22.60
2024-01-11T03:02:25.089Z,17.97
2024-01-11T03:04:52.113Z,23.23
2024-01-11T03:07:19.213Z,21.23
2024-01-11T03:09:46.160Z,21.53
2024-01-11T03:12:13.176Z,20.03
2024-01-11T03:14:40.410Z,21.63
2024-01-11T03:17:07.577Z,21.87
2024-01-11T03:19:34.694Z,20.40
2024-01-11T03:22:05.806Z,20.30
2024-01-11T03:24:32.836Z,22.77
2024-01-11T03:26:59.904Z,17.93
2024-01-11T03:29:26.909Z,18.60
2024-01-11T03:31:53.926Z,18.80
2024-01-11T03:34:21.206Z,17.67
2024-01-11T03:36:48.350Z,19.53
2024-01-11T03:39:15.332Z,20.50
2024-01-11T03:41:46.130Z,18.00
2024-01-11T03:44:14.054Z,20.60
2024-01-11T03:46:41.048Z,20.97
2024-01-11T03:49:09.023Z,24.20
2024-01-11T03:51:37.184Z,16.57
2024-01-11T03:54:04.237Z,16.97
2024-01-11T03:56:31.462Z,17.17
2024-01-11T03:58:58.667Z,18.50
2024-01-11T04:01:25.758Z,17.67
2024-01-11T04:03:52.809Z,20.30
2024-01-11T04:06:25.346Z,21.60
2024-01-11T04:08:52.604Z,17.90
2024-01-11T04:11:19.930Z,19.00
2024-01-11T04:13:47.009Z,17.83
2024-01-11T04:16:14.072Z,22.00
2024-01-11T04:18:41.109Z,15.83
2024-01-11T04:21:08.110Z,20.13
2024-01-11T04:23:35.273Z,16.30
2024-01-11T04:26:02.444Z,17.50
2024-01-11T04:28:29.466Z,16.70
2024-01-11T04:30:56.536Z,16.40
2024-01-11T04:33:23.687Z,16.73
2024-01-11T04:35:50.748Z,17.63
2024-01-11T04:38:17.801Z,19.30
2024-01-11T04:40:44.755Z,17.20
2024-01-11T04:43:11.730Z,16.67
2024-01-11T04:45:38.874Z,16.80
2024-01-11T04:48:06.337Z,17.83
2024-01-11T04:50:33.452Z,19.50
2024-01-11T04:53:00.469Z,15.10
2024-01-11T04:55:27.483Z,13.87
2024-01-11T04:57:54.514Z,17.73
2024-01-11T05:00:21.697Z,17.37
2024-01-11T05:02:48.796Z,16.53
2024-01-11T05:05:16.160Z,15.07
2024-01-11T05:07:43.199Z,16.17
2024-01-11T05:10:10.289Z,17.73
2024-01-11T05:12:39.209Z,19.43
2024-01-11T05:15:09.392Z,16.50
2024-01-11T05:17:36.655Z,15.73
2024-01-11T05:20:04.097Z,16.67
2024-01-11T05:22:31.072Z,15.40
2024-01-11T05:24:58.065Z,14.93
2024-01-11T05:27:25.001Z,16.00
2024-01-11T05:29:52.002Z,17.50
2024-01-11T05:32:19.094Z,16.20
2024-01-11T05:34:46.267Z,15.43
2024-01-11T05:37:13.305Z,16.37
2024-01-11T05:39:40.373Z,14.07
2024-01-11T05:42:07.452Z,15.63
2024-01-11T05:44:34.450Z,13.13
2024-01-11T05:47:01.694Z,13.93
2024-01-11T05:49:28.725Z,13.03
2024-01-11T05:51:55.704Z,13.83
2024-01-11T05:54:22.835Z,12.43
2024-01-11T05:56:51.008Z,12.93
2024-01-11T05:59:18.188Z,12.47
2024-01-11T06:01:45.193Z,11.47
2024-01-11T06:04:12.278Z,12.63
2024-01-11T06:06:39.287Z,13.10
2024-01-11T06:09:06.282Z,12.17
2024-01-11T06:11:33.737Z,13.53
2024-01-11T06:14:02.458Z,12.50
2024-01-11T06:16:29.700Z,11.57
2024-01-11T06:18:56.771Z,12.50
2024-01-11T06:21:23.817Z,12.03
2024-01-11T06:23:51.041Z,11.93
2024-01-11T06:26:18.104Z,10.13
2024-01-11T06:28:45.067Z,11.97
2024-01-11T06:31:13.308Z,12.60
2024-01-11T06:33:40.411Z,11.57
2024-01-11T06:36:11.416Z,13.00
2024-01-11T06:38:38.619Z,11.80
2024-01-11T06:41:05.851Z,11.90
2024-01-11T06:43:32.874Z,10.70
2024-01-11T06:46:06.786Z,9.83
2024-01-11T06:48:34.309Z,12.33
2024-01-11T06:51:02.492Z,11.93
2024-01-11T06:53:29.883Z,10.40
2024-01-11T06:55:57.011Z,12.77
2024-01-11T06:58:24.358Z,11.17
2024-01-11T07:00:51.702Z,11.50
2024-01-11T07:03:19.636Z,11.83
2024-01-11T07:05:46.898Z,10.43
2024-01-11T07:08:14.534Z,9.20
2024-01-11T07:10:42.399Z,13.43
2024-01-11T07:13:11.238Z,9.47
2024-01-11T07:15:38.477Z,8.73
2024-01-11T07:18:06.068Z,10.13
2024-01-11T07:20:33.344Z,8.80
2024-01-11T07:23:00.997Z,9.83
2024-01-11T07:25:28.000Z,11.47
2024-01-11T07:27:55.027Z,10.13
2024-01-11T07:30:22.280Z,11.87
2024-01-11T07:32:49.488Z,11.47
2024-01-11T07:35:19.190Z,11.00
2024-01-11T07:37:46.597Z,10.73
2024-01-11T07:40:14.763Z,10.20
2024-01-11T07:42:43.087Z,10.90
2024-01-11T07:45:13.740Z,11.67
2024-01-11T07:47:41.417Z,10.67
2024-01-11T07:50:13.729Z,9.83
2024-01-11T07:52:43.630Z,10.93
2024-01-11T07:55:13.590Z,10.77
2024-01-11T07:57:41.214Z,10.40
2024-01-11T08:00:09.606Z,10.53
2024-01-11T08:02:42.662Z,10.13
2024-01-11T08:05:10.028Z,12.53
2024-01-11T08:07:37.508Z,12.30
2024-01-11T08:10:05.556Z,10.00
2024-01-11T08:12:32.699Z,11.27
2024-01-11T08:14:59.806Z,9.77
2024-01-11T08:17:26.928Z,9.93
2024-01-11T08:19:53.914Z,10.53
2024-01-11T08:22:25.816Z,12.30
2024-01-11T08:24:54.181Z,11.07
2024-01-11T08:27:21.175Z,12.53
2024-01-11T08:29:48.214Z,13.23
2024-01-11T08:32:24.262Z,11.87
2024-01-11T08:34:58.976Z,11.53
2024-01-11T08:37:26.184Z,11.00
2024-01-11T08:39:53.520Z,10.23
2024-01-11T08:42:20.552Z,11.43
2024-01-11T08:44:48.597Z,11.67
2024-01-11T08:47:16.192Z,11.93
2024-01-11T08:49:43.372Z,12.50
2024-01-11T08:52:11.101Z,10.80
2024-01-11T08:54:38.158Z,10.97
2024-01-11T08:57:05.817Z,11.80
2024-01-11T08:59:34.130Z,11.60
2024-01-11T09:02:10.494Z,10.37
2024-01-11T09:04:42.662Z,13.57
2024-01-11T09:07:09.768Z,11.67
2024-01-11T09:09:44.190Z,13.97
2024-01-11T09:12:17.831Z,10.53
2024-01-11T09:14:44.950Z,12.43
2024-01-11T09:17:12.225Z,11.10
2024-01-11T09:19:41.179Z,10.00
2024-01-11T09:22:11.398Z,14.13
2024-01-11T09:24:40.036Z,9.93
2024-01-11T09:27:07.850Z,10.17
2024-01-11T09:29:35.065Z,13.83
2024-01-11T09:32:02.436Z,15.83
2024-01-11T09:34:29.813Z,13.53
2024-01-11T09:37:00.335Z,12.20
2024-01-11T09:39:28.065Z,11.80
2024-01-11T09:42:12.364Z,12.53
2024-01-11T09:44:40.584Z,10.67
2024-01-11T09:47:15.173Z,12.37
2024-01-11T09:49:46.221Z,10.57
2024-01-11T09:52:16.093Z,9.93
2024-01-11T09:54:43.540Z,10.00
2024-01-11T09:57:11.557Z,12.77
2024-01-11T09:59:38.906Z,12.10
2024-01-11T10:02:09.824Z,12.33
2024-01-11T10:04:38.593Z,12.10
2024-01-11T10:07:10.552Z,9.97
2024-01-11T10:09:37.760Z,11.70
2024-01-11T10:12:06.159Z,12.53
2024-01-11T10:14:33.419Z,11.57
2024-01-11T10:17:01.236Z,11.87
2024-01-11T10:19:28.511Z,10.50
2024-01-11T10:21:55.664Z,11.53
2024-01-11T10:24:25.684Z,10.83
2024-01-11T10:26:56.594Z,13.10
2024-01-11T10:29:25.035Z,11.67
2024-01-11T10:31:53.162Z,9.93
2024-01-11T10:34:21.864Z,11.90
2024-01-11T10:36:48.981Z,10.90
2024-01-11T10:39:18.489Z,10.03
2024-01-11T10:41:52.777Z,12.20
2024-01-11T10:44:23.835Z,11.90
2024-01-11T10:46:52.447Z,11.83
2024-01-11T10:49:20.935Z,13.20
2024-01-11T10:52:00.273Z,12.30
2024-01-11T10:54:29.300Z,13.43
2024-01-11T10:56:57.463Z,14.70
2024-01-11T10:59:26.473Z,12.87
2024-01-11T11:01:59.738Z,13.00
2024-01-11T11:04:26.982Z,16.30
2024-01-11T11:07:00.179Z,19.60
2024-01-11T11:09:28.902Z,17.67
2024-01-11T11:12:00.257Z,15.80
2024-01-11T11:14:29.356Z,13.57
2024-01-11T11:16:56.641Z,13.33
2024-01-11T11:19:23.917Z,13.93
2024-01-11T11:21:52.109Z,15.87
2024-01-11T11:24:19.926Z,15.40
2024-01-11T11:26:47.701Z,14.80
2024-01-11T11:29:16.617Z,12.83
2024-01-11T11:31:54.509Z,14.10
2024-01-11T11:34:22.211Z,14.40
2024-01-11T11:36:55.463Z,13.30
2024-01-11T11:39:22.480Z,14.07
2024-01-11T11:41:51.075Z,14.47
2024-01-11T11:44:18.456Z,14.63
2024-01-11T11:46:47.703Z,15.23
2024-01-11T11:49:15.407Z,14.80
2024-01-11T11:51:44.936Z,15.43
2024-01-11T11:54:12.370Z,15.83
2024-01-11T11:56:39.573Z,28.40
2024-01-11T11:59:09.510Z,21.40
2024-01-11T12:01:38.676Z,15.77
2024-01-11T12:04:05.657Z,15.47
2024-01-11T12:06:32.879Z,18.30
2024-01-11T12:09:00.084Z,17.17
2024-01-11T12:11:29.057Z,16.87
2024-01-11T12:13:58.829Z,13.80
2024-01-11T12:16:26.290Z,13.20
2024-01-11T12:18:53.494Z,13.30
2024-01-11T12:21:21.271Z,15.53
2024-01-11T12:23:49.881Z,13.27
2024-01-11T12:26:23.195Z,12.60
2024-01-11T12:28:51.289Z,14.07
2024-01-11T12:31:20.998Z,14.47
2024-01-11T12:33:50.070Z,14.03
2024-01-11T12:36:17.477Z,13.50
2024-01-11T12:38:52.385Z,13.83
2024-01-11T12:41:22.676Z,14.70
2024-01-11T12:43:49.781Z,12.77
2024-01-11T12:46:18.341Z,13.73
2024-01-11T12:48:45.527Z,14.77
2024-01-11T12:51:17.588Z,14.03
2024-01-11T12:53:54.274Z,12.23
2024-01-11T12:56:23.234Z,12.00
2024-01-11T12:58:50.601Z,14.00
2024-01-11T13:01:17.853Z,13.20
2024-01-11T13:03:49.783Z,14.67
2024-01-11T13:06:19.425Z,12.67
2024-01-11T13:08:46.937Z,16.47
2024-01-11T13:11:16.380Z,14.87
2024-01-11T13:13:43.740Z,17.70
2024-01-11T13:16:13.680Z,16.60
2024-01-11T13:18:40.830Z,15.97
2024-01-11T13:21:08.100Z,15.17
2024-01-11T13:23:35.387Z,16.93
2024-01-11T13:26:03.729Z,16.10
2024-01-11T13:28:31.560Z,17.10
2024-01-11T13:30:58.675Z,14.23
2024-01-11T13:33:25.750Z,13.73
2024-01-11T13:35:53.287Z,16.20
2024-01-11T13:38:23.364Z,15.80
2024-01-11T13:40:52.351Z,13.33
2024-01-11T13:43:19.513Z,15.37
2024-01-11T13:45:46.638Z,15.63
2024-01-11T13:48:14.229Z,17.30
2024-01-11T13:50:41.416Z,16.63
2024-01-11T13:53:08.782Z,12.83
2024-01-11T13:55:40.060Z,16.60
2024-01-11T13:58:08.103Z,17.37
2024-01-11T14:00:35.632Z,14.80
2024-01-11T14:03:04.790Z,16.53
2024-01-11T14:05:32.307Z,17.43
2024-01-11T14:08:00.856Z,15.17
2024-01-11T14:10:28.905Z,16.70
2024-01-11T14:12:56.524Z,16.37
2024-01-11T14:15:24.277Z,18.93
2024-01-11T14:17:51.665Z,18.50
2024-01-11T14:20:19.388Z,17.27
2024-01-11T14:22:53.009Z,16.87
2024-01-11T14:25:25.883Z,20.53
2024-01-11T14:27:54.075Z,18.00
2024-01-11T14:30:23.602Z,18.77
2024-01-11T14:32:51.019Z,20.93
2024-01-11T14:35:19.359Z,17.50
2024-01-11T14:37:46.698Z,19.13
2024-01-11T14:40:13.898Z,16.90
2024-01-11T14:42:42.392Z,16.77
2024-01-11T14:45:10.477Z,21.67
2024-01-11T14:47:38.301Z,20.63
2024-01-11T14:50:09.059Z,20.27
2024-01-11T14:52:36.467Z,20.80
2024-01-11T14:55:05.183Z,18.40
2024-01-11T14:57:32.327Z,18.63
2024-01-11T14:59:59.445Z,16.60
2024-01-11T15:02:26.551Z,17.33
2024-01-11T15:04:54.090Z,16.47
2024-01-11T15:07:21.152Z,17.20
2024-01-11T15:09:48.148Z,21.30
2024-01-11T15:12:15.159Z,19.03
2024-01-11T15:14:42.312Z,18.67
2024-01-11T15:17:10.111Z,20.17
2024-01-11T15:19:37.169Z,17.87
2024-01-11T15:22:04.302Z,19.70
2024-01-11T15:24:31.370Z,19.30
2024-01-11T15:26:58.633Z,19.27
2024-01-11T15:29:25.763Z,21.53
2024-01-11T15:31:52.946Z,20.63
2024-01-11T15:34:20.852Z,18.07
2024-01-11T15:36:48.205Z,19.23
2024-01-11T15:39:24.827Z,19.00
2024-01-11T15:41:57.183Z,17.13
2024-01-11T15:44:27.425Z,20.50
2024-01-11T15:46:54.727Z,14.80
2024-01-11T15:49:22.039Z,14.33
2024-01-11T15:51:49.259Z,30.97
2024-01-11T15:54:16.263Z,37.97
2024-01-11T15:56:43.333Z,46.53
2024-01-11T15:59:10.493Z,21.47
2024-01-11T16:01:50.224Z,13.87
2024-01-11T16:04:24.212Z,14.47
2024-01-11T16:06:51.422Z,14.93
2024-01-11T16:09:19.178Z,14.40
2024-01-11T16:11:49.763Z,39.93
2024-01-11T16:14:17.611Z,17.00
2024-01-11T16:16:45.226Z,15.57
2024-01-11T16:19:12.786Z,14.03
2024-01-11T16:21:40.518Z,13.47
2024-01-11T16:24:08.578Z,25.73
2024-01-11T16:26:36.353Z,14.23
2024-01-11T16:29:03.732Z,14.13
2024-01-11T16:31:30.800Z,13.90
2024-01-11T16:33:57.927Z,14.23
2024-01-11T16:36:25.308Z,12.13
2024-01-11T16:38:53.345Z,13.20
2024-01-11T16:41:20.964Z,12.80
2024-01-11T16:43:48.084Z,11.87
2024-01-11T16:46:23.226Z,12.20
2024-01-11T16:48:52.012Z,13.37
2024-01-11T16:51:20.262Z,13.67
2024-01-11T16:53:47.720Z,13.47
2024-01-11T16:56:15.234Z,12.40
2024-01-11T16:58:43.146Z,14.90
2024-01-11T17:01:11.447Z,16.53
2024-01-11T17:03:38.632Z,13.03
2024-01-11T17:06:06.160Z,11.67
2024-01-11T17:08:33.801Z,16.20
2024-01-11T17:11:01.254Z,15.40
2024-01-11T17:13:28.253Z,16.57
2024-01-11T17:15:55.438Z,18.17
2024-01-11T17:18:22.688Z,158.93
2024-01-11T17:20:49.862Z,106.67
2024-01-11T17:23:18.407Z,159.07
2024-01-11T17:25:45.563Z,78.03
2024-01-11T17:28:12.523Z,50.73
2024-01-11T17:30:39.609Z,84.83
2024-01-11T17:33:06.761Z,35.10
2024-01-11T17:35:34.045Z,43.83
2024-01-11T17:38:01.086Z,33.63
2024-01-11T17:40:31.403Z,22.13
2024-01-11T17:42:59.951Z,21.70
2024-01-11T17:45:26.988Z,14.63
2024-01-11T17:47:54.582Z,10.47
2024-01-11T17:50:22.760Z,9.77
2024-01-11T17:52:51.731Z,14.17
2024-01-11T17:55:19.537Z,13.73
2024-01-11T17:57:46.654Z,11.17
2024-01-11T18:00:14.815Z,17.67
2024-01-11T18:02:42.153Z,11.83
2024-01-11T18:05:10.725Z,10.47
2024-01-11T18:07:38.093Z,8.77
2024-01-11T18:10:06.282Z,9.50
2024-01-11T18:12:33.334Z,10.00
2024-01-11T18:15:00.538Z,8.10
2024-01-11T18:17:27.858Z,9.57
2024-01-11T18:19:55.057Z,11.80
2024-01-11T18:22:22.936Z,17.87
2024-01-11T18:24:49.893Z,28.77
2024-01-11T18:27:16.947Z,40.03
2024-01-11T18:29:44.328Z,52.77
2024-01-11T18:32:11.427Z,52.00
2024-01-11T18:34:38.418Z,53.00
2024-01-11T18:37:05.537Z,335.27
2024-01-11T18:39:33.289Z,59.60
2024-01-11T18:42:01.897Z,104.50
2024-01-11T18:44:30.043Z,90.20
2024-01-11T18:46:57.516Z,78.53
2024-01-11T18:49:24.571Z,63.47
2024-01-11T18:51:51.569Z,51.73
2024-01-11T18:54:18.570Z,46.90
2024-01-11T18:56:46.166Z,40.07
2024-01-11T18:59:13.300Z,26.47
2024-01-11T19:01:40.984Z,22.90
2024-01-11T19:04:08.045Z,14.57
2024-01-11T19:06:35.069Z,11.13
2024-01-11T19:09:02.135Z,8.53
2024-01-11T19:11:30.062Z,11.03
2024-01-11T19:13:58.144Z,10.47
2024-01-11T19:16:25.272Z,9.40
2024-01-11T19:18:53.112Z,7.17
2024-01-11T19:21:20.285Z,6.07
2024-01-11T19:23:47.391Z,6.53
2024-01-11T19:26:14.497Z,6.03
2024-01-11T19:28:41.598Z,5.80
2024-01-11T19:31:09.694Z,6.43
2024-01-11T19:33:36.977Z,5.80
2024-01-11T19:36:05.251Z,5.60
2024-01-11T19:38:36.071Z,5.63
2024-01-11T19:41:03.974Z,5.83
2024-01-11T19:43:31.014Z,5.83
2024-01-11T19:45:59.720Z,6.40
2024-01-11T19:48:27.055Z,6.90
2024-01-11T19:50:54.666Z,6.77
2024-01-11T19:53:21.728Z,7.30
2024-01-11T19:55:48.737Z,6.97
2024-01-11T19:58:15.836Z,6.77
2024-01-11T20:00:42.978Z,7.20
2024-01-11T20:03:10.163Z,6.63
2024-01-11T20:05:37.237Z,6.50
2024-01-11T20:08:04.665Z,35.93
2024-01-11T20:10:32.608Z,75.33
2024-01-11T20:12:59.647Z,79.50
2024-01-11T20:15:26.638Z,81.90
2024-01-11T20:17:53.784Z,175.73
2024-01-11T20:20:20.915Z,167.00
2024-01-11T20:22:47.951Z,79.30
2024-01-11T20:25:14.927Z,38.63
2024-01-11T20:27:41.968Z,20.63
2024-01-11T20:30:12.185Z,12.67
2024-01-11T20:32:39.975Z,9.43
2024-01-11T20:35:07.633Z,7.67
2024-01-11T20:37:35.732Z,7.13
2024-01-11T20:40:02.777Z,8.10
2024-01-11T20:42:29.733Z,6.20
2024-01-11T20:44:56.878Z,6.20
2024-01-11T20:47:24.164Z,5.37
2024-01-11T20:49:51.958Z,5.33
2024-01-11T20:52:22.357Z,5.10
2024-01-11T20:54:50.825Z,5.43
2024-01-11T20:57:18.725Z,6.00
2024-01-11T20:59:45.728Z,5.07
2024-01-11T21:02:12.813Z,5.63
2024-01-11T21:04:40.006Z,5.67
2024-01-11T21:07:07.177Z,6.90
2024-01-11T21:09:34.277Z,7.33
2024-01-11T21:12:01.634Z,8.10
2024-01-11T21:14:28.792Z,6.50
2024-01-11T21:16:55.786Z,6.17
2024-01-11T21:19:22.946Z,7.73
2024-01-11T21:21:51.756Z,7.57
2024-01-11T21:24:21.120Z,42.57
2024-01-11T21:26:48.465Z,51.93
2024-01-11T21:29:15.745Z,63.30
2024-01-11T21:31:43.001Z,52.77
2024-01-11T21:34:10.097Z,41.80
2024-01-11T21:36:37.536Z,27.67
2024-01-11T21:39:05.098Z,17.63
2024-01-11T21:41:32.883Z,10.63
2024-01-11T21:44:00.916Z,8.50
2024-01-11T21:46:28.618Z,5.80
2024-01-11T21:48:56.332Z,6.93
2024-01-11T21:51:23.995Z,5.93
2024-01-11T21:53:58.595Z,5.60
2024-01-11T21:56:26.882Z,5.70
2024-01-11T21:58:54.603Z,5.43
2024-01-11T22:01:21.672Z,4.30
2024-01-11T22:03:48.790Z,5.27
2024-01-11T22:06:16.316Z,5.53
2024-01-11T22:08:43.450Z,4.77
2024-01-11T22:11:10.468Z,4.67
2024-01-11T22:13:38.824Z,5.73
2024-01-11T22:16:08.553Z,5.13
2024-01-11T22:18:36.309Z,5.20
2024-01-11T22:21:04.275Z,5.60
2024-01-11T22:23:31.464Z,5.00
2024-01-11T22:25:58.643Z,4.70
2024-01-11T22:28:25.688Z,4.83
2024-01-11T22:30:52.871Z,4.37
2024-01-11T22:33:20.123Z,4.30
2024-01-11T22:35:47.192Z,4.50
2024-01-11T22:38:14.282Z,4.67
2024-01-11T22:40:41.296Z,5.30
2024-01-11T22:43:08.317Z,4.07
2024-01-11T22:45:35.726Z,3.63
2024-01-11T22:48:03.392Z,3.60
2024-01-11T22:50:30.651Z,3.73
2024-01-11T22:52:58.770Z,3.93
2024-01-11T22:55:25.892Z,3.40
2024-01-11T22:57:52.972Z,4.10
2024-01-11T23:00:24.118Z,4.27
2024-01-11T23:02:52.164Z,2.67
2024-01-11T23:05:20.174Z,4.40
2024-01-11T23:07:48.220Z,3.40
2024-01-11T23:10:16.943Z,3.30
2024-01-11T23:12:44.767Z,4.00
2024-01-11T23:15:12.620Z,4.27
2024-01-11T23:17:39.926Z,4.00
2024-01-11T23:20:09.020Z,4.33
2024-01-11T23:22:37.238Z,3.07
2024-01-11T23:25:04.620Z,3.20
2024-01-11T23:27:31.619Z,3.57
2024-01-11T23:29:58.775Z,3.83
2024-01-11T23:32:25.967Z,3.40
2024-01-11T23:34:53.152Z,3.47
2024-01-11T23:37:20.313Z,3.43
2024-01-11T23:39:47.704Z,3.97
2024-01-11T23:42:14.694Z,3.60
2024-01-11T23:44:42.750Z,3.13
2024-01-11T23:47:09.856Z,3.63
2024-01-11T23:49:36.877Z,3.57
2024-01-11T23:52:04.148Z,3.53
2024-01-11T23:54:31.116Z,3.33
2024-01-11T23:56:58.332Z,3.07
2024-01-11T23:59:25.508Z,3.03
